Weather at Swiss Medical Heliport

Public forecast

Using degrees Celsius for public forecast. Weather courtesy of forecast.io.

Closest aviation weather report (METAR) to Swiss Medical Heliport

Closest report is Jorge Newbery Airpark, 1.5 nm (2.7 km) NNE.

2024/05/30 22:00 (retrieved 39 minutes ago)

SABE 302200Z VRB02KT 9999 SCT046 15/10 Q1024 NOSIG

Closest aviation forecast (TAF) to Swiss Medical Heliport

Closest forecast is Jorge Newbery Airpark, 1.5 nm (2.7 km) NNE.

2024/05/30 18:03 (retrieved 5 hours ago)

TAF SABE 301700Z 3018/3118 36005KT 9999 BKN040 TX16/3018Z TN12/3110Z BECMG 3020/3022 05005KT BECMG 3106/3108 8000 BKN015 BECMG 3112/3114 02010KT 9999 SCT015 BKN040